KDED/DED METAR and TAF weather

Enter ICAO airport designator
Station Type Date Time Source
KDED METAR 2021/09/23 17:50 UTC NOAA

KDED 231750Z AUTO 30003KT 10SM SCT034 29/21 A2991 RMK AO2 LTG DSNT E T02940212 10297 20255


Station Type Date Time Source
KDED Decoded METAR 2021/09/23 17:50 UTC NOAA

Station name not available
Sep 23, 2021 - 01:50 PM EDT / 2021.09.23 1750 UTC
Wind: from the WNW (300 degrees) at 3 MPH (3 KT):0
Visibility: 10 mile(s):0
Sky conditions: partly cloudy
Weather: Lightning observed
Temperature: 84.9 F (29.4 C)
Dew Point: 70.2 F (21.2 C)
Relative Humidity: 61%
Pressure (altimeter): 29.91 in. Hg (1012 hPa)
ob: KDED 231750Z AUTO 30003KT 10SM SCT034 29/21 A2991 RMK AO2 LTG DSNT E T02940212 10297 20255
cycle: 18

Station Type Date Time Source
KDED TAF UTC NOAA

Error!

Example: see airport list